Memphis (MEM/KMEM)

Information

Location
Memphis, TN
Local Time
15:30 / 3:30 pm
GMT Time
20:30 / 8:30 pm
Gates
C22
No FAA reported delays
METAR KMEM 231954Z 28009KT 10SM SCT250 21/06 A2994 RMK AO2 SLP135 T02060061
TAF KMEM 231724Z 2318/2418 29011G17KT P6SM FEW040 FM240000 22008KT P6SM SKC FM240300 30010G16KT P6SM SKC FM241500 30014G22KT P6SM SKC